Gaz Palmyra — 3FCO4 — position and weather

sailwx.info

Track history (hours):
 
Tides and Currents Weather Stations Pressure Air Temp Water Temp Dewpoint Dewpoint Depression Visibility Wind Speed Wind Dir Waves Ship Positions

Gaz Palmyra

Last reported at 2015-Apr-18 23:13 UTC. Time now 2015-Apr-19 14:08 UTC.
Position N 36°45' E 001°00'.

Length 137 m; draft 5.8 m.

Type: Ship (hazmat cat C). MMSI: 353247000.

Date/timePositionNaut miles runAvg speedWind from/ knotsBaromVisibWave heightAir tempDewpointWater temp
2015-Apr-18 23:13N 36°45' E 001°00'1412.9
2015-Apr-18 22:09N 36°38' E 000°46'1012.8
2015-Apr-18 21:24N 36°33' E 000°35'1012.3
2015-Apr-18 20:33N 36°26' E 000°26'1312.5
2015-Apr-18 19:33N 36°16' E 000°16'1211.2
2015-Apr-18 18:27N 36°07' E 000°05'1011.6
2015-Apr-18 17:33N 35°60' W 000°04'1110.5
2015-Apr-18 16:29N 35°51' W 000°12'90 2.0
2015-Apr-16 18:32N 37°16' W 000°48'10 9.9
2015-Apr-16 17:33N 37°24' W 000°55'11 1.0
2015-Apr-16 06:25N 37°33' W 001°02'0 0.0
2015-Apr-16 05:31N 37°33' W 001°02'0 0.0
2015-Apr-16 04:25N 37°33' W 001°02'0 0.0
2015-Apr-16 03:25N 37°33' W 001°02'0 0.0
2015-Apr-15 21:31N 37°34' W 001°02'0 0.0
2015-Apr-15 20:07N 37°34' W 001°02'0 0.0
2015-Apr-15 19:07N 37°33' W 001°02'0 0.0
2015-Apr-15 11:19N 37°33' W 001°02'0 0.1
2015-Apr-15 10:31N 37°33' W 001°02'0 0.1
2015-Apr-15 09:19N 37°33' W 001°02'0 0.0
2015-Apr-15 08:31N 37°33' W 001°02'0 0.0
2015-Apr-15 07:31N 37°33' W 001°02'0 0.0
2015-Apr-15 06:19N 37°33' W 001°02'0 0.0
2015-Apr-15 05:25N 37°33' W 001°02'0 0.0
2015-Apr-15 04:19N 37°33' W 001°02'0 0.0
2015-Apr-15 03:31N 37°33' W 001°02'0 0.0
2015-Apr-15 02:26N 37°33' W 001°02'0 0.0
2015-Apr-15 01:32N 37°33' W 001°02'0 0.0
2015-Apr-15 00:19N 37°33' W 001°02'0 0.0
2015-Apr-14 23:31N 37°33' W 001°02'0 0.0
2015-Apr-14 22:25N 37°33' W 001°02'0 0.0
2015-Apr-14 21:26N 37°33' W 001°02'0 0.0
2015-Apr-14 19:20N 37°33' W 001°02'0 0.0
2015-Apr-14 18:31N 37°33' W 001°02'0 0.0
2015-Apr-14 17:25N 37°33' W 001°02'0 0.0
2015-Apr-14 15:31N 37°33' W 001°02'0 0.0
2015-Apr-14 13:19N 37°33' W 001°02'0 0.0
2015-Apr-14 09:21N 37°33' W 001°02'0 0.0
2015-Apr-14 08:15N 37°33' W 001°02'0 0.0
2015-Apr-14 07:15N 37°33' W 001°02'0 0.0
2015-Apr-14 06:27N 37°33' W 001°02'0 0.0
2015-Apr-14 05:32N 37°33' W 001°02'0 0.0
2015-Apr-14 04:20N 37°33' W 001°02'0 0.0
2015-Apr-14 03:32N 37°33' W 001°02'0 0.0
2015-Apr-14 01:26N 37°33' W 001°02'0 0.0
2015-Apr-13 23:26N 37°33' W 001°02'0 0.0
2015-Apr-13 22:32N 37°33' W 001°02'0 0.0
2015-Apr-13 19:09N 37°33' W 001°02'0 0.0
2015-Apr-13 18:27N 37°33' W 001°02'0 0.0
2015-Apr-13 17:33N 37°33' W 001°02'0 0.0
2015-Apr-13 16:33N 37°33' W 001°02'0 0.0
2015-Apr-13 15:27N 37°33' W 001°02'0 0.0
2015-Apr-13 14:32N 37°33' W 001°02'0 0.0
2015-Apr-13 13:32N 37°33' W 001°02'0 0.0
2015-Apr-13 12:20N 37°33' W 001°02'0 0.0
2015-Apr-13 11:32N 37°33' W 001°02'0 0.0
2015-Apr-13 10:33N 37°33' W 001°02'0 0.1
2015-Apr-13 09:33N 37°33' W 001°02'3 2.6
2015-Apr-13 08:33N 37°32' W 001°04'1211.6
2015-Apr-13 07:33N 37°27' W 000°51'1211.3
2015-Apr-13 06:32N 37°21' W 000°38'1110.9
2015-Apr-13 05:33N 37°17' W 000°26'1211.5
2015-Apr-13 04:33N 37°16' W 000°11'1311.7
2015-Apr-13 03:27N 37°14' E 000°05'1011.8
2015-Apr-13 02:33N 37°12' E 000°18'1211.7
2015-Apr-13 01:33N 37°11' E 000°32'1311.6
2015-Apr-13 00:24N 37°09' E 000°49'1011.7
2015-Apr-12 23:31N 37°07' E 001°02'1311.8
2015-Apr-12 22:27N 37°05' E 001°17'1011.6
2015-Apr-12 21:33N 37°04' E 001°30'1612.4
2015-Apr-12 20:13N 37°02' E 001°51'912.9
2015-Apr-12 19:30N 37°00' E 002°02'1212.7
2015-Apr-12 18:33N 36°58' E 002°17'1212.0
2015-Apr-12 17:33N 36°56' E 002°32'1111.5
2015-Apr-12 16:33N 36°55' E 002°46'1111.3
2015-Apr-12 15:33N 36°53' E 003°00'8 7.9
2015-Apr-12 14:30N 36°46' E 003°05'  
2015-Apr-09 16:14N 36°46' E 003°05'1 0.4
2015-Apr-09 13:24N 36°46' E 003°06'0 0.0
2015-Apr-09 11:30N 36°46' E 003°06'0 0.0
2015-Apr-09 10:12N 36°46' E 003°06'0 0.0
2015-Apr-09 09:33N 36°46' E 003°06'0 0.0
2015-Apr-09 05:30N 36°46' E 003°06'0 0.0
2015-Apr-09 03:24N 36°46' E 003°06'0 0.0
2015-Apr-09 02:30N 36°46' E 003°06'0 0.0
2015-Apr-09 01:18N 36°46' E 003°06'0 0.0
2015-Apr-09 00:30N 36°46' E 003°06'0 0.0
2015-Apr-08 23:30N 36°46' E 003°06'  
Track history (hours):
 
Tides and Currents Weather Stations Pressure Air Temp Water Temp Dewpoint Dewpoint Depression Visibility Wind Speed Wind Dir Waves Ship Positions

Gaz Palmyra

Last reported at 2015-Apr-18 23:13 UTC. Time now 2015-Apr-19 14:08 UTC.
Position N 36°45' E 001°00'.

Length 137 m; draft 5.8 m.

Type: Ship (hazmat cat C). MMSI: 353247000.

Date/timePositionNaut miles runAvg speedWind from/ knotsBaromVisibWave heightAir tempDewpointWater temp
2015-Apr-18 23:13N 36°45' E 001°00'1412.9
2015-Apr-18 22:09N 36°38' E 000°46'1012.8
2015-Apr-18 21:24N 36°33' E 000°35'1012.3
2015-Apr-18 20:33N 36°26' E 000°26'1312.5
2015-Apr-18 19:33N 36°16' E 000°16'1211.2
2015-Apr-18 18:27N 36°07' E 000°05'1011.6
2015-Apr-18 17:33N 35°60' W 000°04'1110.5
2015-Apr-18 16:29N 35°51' W 000°12'90 2.0
2015-Apr-16 18:32N 37°16' W 000°48'10 9.9
2015-Apr-16 17:33N 37°24' W 000°55'11 1.0
2015-Apr-16 06:25N 37°33' W 001°02'0 0.0
2015-Apr-16 05:31N 37°33' W 001°02'0 0.0
2015-Apr-16 04:25N 37°33' W 001°02'0 0.0
2015-Apr-16 03:25N 37°33' W 001°02'0 0.0
2015-Apr-15 21:31N 37°34' W 001°02'0 0.0
2015-Apr-15 20:07N 37°34' W 001°02'0 0.0
2015-Apr-15 19:07N 37°33' W 001°02'0 0.0
2015-Apr-15 11:19N 37°33' W 001°02'0 0.1
2015-Apr-15 10:31N 37°33' W 001°02'0 0.1
2015-Apr-15 09:19N 37°33' W 001°02'0 0.0
2015-Apr-15 08:31N 37°33' W 001°02'0 0.0
2015-Apr-15 07:31N 37°33' W 001°02'0 0.0
2015-Apr-15 06:19N 37°33' W 001°02'0 0.0
2015-Apr-15 05:25N 37°33' W 001°02'0 0.0
2015-Apr-15 04:19N 37°33' W 001°02'0 0.0
2015-Apr-15 03:31N 37°33' W 001°02'0 0.0
2015-Apr-15 02:26N 37°33' W 001°02'0 0.0
2015-Apr-15 01:32N 37°33' W 001°02'0 0.0
2015-Apr-15 00:19N 37°33' W 001°02'0 0.0
2015-Apr-14 23:31N 37°33' W 001°02'0 0.0
2015-Apr-14 22:25N 37°33' W 001°02'0 0.0
2015-Apr-14 21:26N 37°33' W 001°02'0 0.0
2015-Apr-14 19:20N 37°33' W 001°02'0 0.0
2015-Apr-14 18:31N 37°33' W 001°02'0 0.0
2015-Apr-14 17:25N 37°33' W 001°02'0 0.0
2015-Apr-14 15:31N 37°33' W 001°02'0 0.0
2015-Apr-14 13:19N 37°33' W 001°02'0 0.0
2015-Apr-14 09:21N 37°33' W 001°02'0 0.0
2015-Apr-14 08:15N 37°33' W 001°02'0 0.0
2015-Apr-14 07:15N 37°33' W 001°02'0 0.0
2015-Apr-14 06:27N 37°33' W 001°02'0 0.0
2015-Apr-14 05:32N 37°33' W 001°02'0 0.0
2015-Apr-14 04:20N 37°33' W 001°02'0 0.0
2015-Apr-14 03:32N 37°33' W 001°02'0 0.0
2015-Apr-14 01:26N 37°33' W 001°02'0 0.0
2015-Apr-13 23:26N 37°33' W 001°02'0 0.0
2015-Apr-13 22:32N 37°33' W 001°02'0 0.0
2015-Apr-13 19:09N 37°33' W 001°02'0 0.0
2015-Apr-13 18:27N 37°33' W 001°02'0 0.0
2015-Apr-13 17:33N 37°33' W 001°02'0 0.0
2015-Apr-13 16:33N 37°33' W 001°02'0 0.0
2015-Apr-13 15:27N 37°33' W 001°02'0 0.0
2015-Apr-13 14:32N 37°33' W 001°02'0 0.0
2015-Apr-13 13:32N 37°33' W 001°02'0 0.0
2015-Apr-13 12:20N 37°33' W 001°02'0 0.0
2015-Apr-13 11:32N 37°33' W 001°02'0 0.0
2015-Apr-13 10:33N 37°33' W 001°02'0 0.1
2015-Apr-13 09:33N 37°33' W 001°02'3 2.6
2015-Apr-13 08:33N 37°32' W 001°04'1211.6
2015-Apr-13 07:33N 37°27' W 000°51'1211.3
2015-Apr-13 06:32N 37°21' W 000°38'1110.9
2015-Apr-13 05:33N 37°17' W 000°26'1211.5
2015-Apr-13 04:33N 37°16' W 000°11'1311.7
2015-Apr-13 03:27N 37°14' E 000°05'1011.8
2015-Apr-13 02:33N 37°12' E 000°18'1211.7
2015-Apr-13 01:33N 37°11' E 000°32'1311.6
2015-Apr-13 00:24N 37°09' E 000°49'1011.7
2015-Apr-12 23:31N 37°07' E 001°02'1311.8
2015-Apr-12 22:27N 37°05' E 001°17'1011.6
2015-Apr-12 21:33N 37°04' E 001°30'1612.4
2015-Apr-12 20:13N 37°02' E 001°51'912.9
2015-Apr-12 19:30N 37°00' E 002°02'1212.7
2015-Apr-12 18:33N 36°58' E 002°17'1212.0
2015-Apr-12 17:33N 36°56' E 002°32'1111.5
2015-Apr-12 16:33N 36°55' E 002°46'1111.3
2015-Apr-12 15:33N 36°53' E 003°00'8 7.9
2015-Apr-12 14:30N 36°46' E 003°05'  
2015-Apr-09 16:14N 36°46' E 003°05'1 0.4
2015-Apr-09 13:24N 36°46' E 003°06'0 0.0
2015-Apr-09 11:30N 36°46' E 003°06'0 0.0
2015-Apr-09 10:12N 36°46' E 003°06'0 0.0
2015-Apr-09 09:33N 36°46' E 003°06'0 0.0
2015-Apr-09 05:30N 36°46' E 003°06'0 0.0
2015-Apr-09 03:24N 36°46' E 003°06'0 0.0
2015-Apr-09 02:30N 36°46' E 003°06'0 0.0
2015-Apr-09 01:18N 36°46' E 003°06'0 0.0
2015-Apr-09 00:30N 36°46' E 003°06'0 0.0
2015-Apr-08 23:30N 36°46' E 003°06'  

Dump ship's entire track history